sensor_id;sensor_type;location;lat;lon;timestamp;P1;durP1;ratioP1;P2;durP2;ratioP2
49812;SDS011;35706;52.100;5.056;2023-02-28T00:00:02;2.85;;;0.30;;
49812;SDS011;35706;52.100;5.056;2023-02-28T00:01:10;1.35;;;0.30;;
49812;SDS011;35706;52.100;5.056;2023-02-28T00:02:12;2.15;;;0.25;;
49812;SDS011;35706;52.100;5.056;2023-02-28T00:03:12;3.45;;;0.30;;
49812;SDS011;35706;52.100;5.056;2023-02-28T00:04:12;2.58;;;0.52;;
49812;SDS011;35706;52.100;5.056;2023-02-28T00:05:14;0.90;;;0.20;;
49812;SDS011;35706;52.100;5.056;2023-02-28T00:06:16;1.10;;;0.30;;
49812;SDS011;35706;52.100;5.056;2023-02-28T00:07:17;5.65;;;0.30;;
49812;SDS011;35706;52.100;5.056;2023-02-28T00:08:17;2.25;;;0.30;;
49812;SDS011;35706;52.100;5.056;2023-02-28T00:09:17;5.00;;;0.30;;
49812;SDS011;35706;52.100;5.056;2023-02-28T00:10:18;1.60;;;0.40;;
49812;SDS011;35706;52.100;5.056;2023-02-28T00:11:20;1.13;;;0.25;;
49812;SDS011;35706;52.100;5.056;2023-02-28T00:12:21;2.47;;;0.60;;
49812;SDS011;35706;52.100;5.056;2023-02-28T00:13:22;1.55;;;0.30;;
49812;SDS011;35706;52.100;5.056;2023-02-28T00:14:22;3.22;;;0.40;;
49812;SDS011;35706;52.100;5.056;2023-02-28T00:15:22;3.58;;;0.20;;
49812;SDS011;35706;52.100;5.056;2023-02-28T00:16:23;1.00;;;0.30;;
49812;SDS011;35706;52.100;5.056;2023-02-28T00:17:24;1.33;;;0.30;;
49812;SDS011;35706;52.100;5.056;2023-02-28T00:18:24;2.15;;;0.30;;
49812;SDS011;35706;52.100;5.056;2023-02-28T00:19:24;1.75;;;0.30;;
49812;SDS011;35706;52.100;5.056;2023-02-28T00:20:25;3.08;;;0.30;;
49812;SDS011;35706;52.100;5.056;2023-02-28T00:21:25;2.45;;;0.30;;
49812;SDS011;35706;52.100;5.056;2023-02-28T00:22:26;1.65;;;0.30;;
49812;SDS011;35706;52.100;5.056;2023-02-28T00:23:27;2.45;;;0.30;;
49812;SDS011;35706;52.100;5.056;2023-02-28T00:24:27;1.23;;;0.30;;
49812;SDS011;35706;52.100;5.056;2023-02-28T00:25:28;0.80;;;0.30;;
49812;SDS011;35706;52.100;5.056;2023-02-28T00:26:28;3.38;;;0.40;;
49812;SDS011;35706;52.100;5.056;2023-02-28T00:27:28;2.67;;;0.40;;
49812;SDS011;35706;52.100;5.056;2023-02-28T00:28:28;1.65;;;0.30;;
49812;SDS011;35706;52.100;5.056;2023-02-28T00:29:29;3.00;;;0.40;;
49812;SDS011;35706;52.100;5.056;2023-02-28T00:30:29;1.25;;;0.40;;
49812;SDS011;35706;52.100;5.056;2023-02-28T00:31:30;2.17;;;0.40;;
49812;SDS011;35706;52.100;5.056;2023-02-28T00:32:30;3.47;;;0.40;;
49812;SDS011;35706;52.100;5.056;2023-02-28T00:33:30;3.95;;;0.40;;
49812;SDS011;35706;52.100;5.056;2023-02-28T00:34:31;3.25;;;0.38;;
49812;SDS011;35706;52.100;5.056;2023-02-28T00:35:37;0.80;;;0.30;;
49812;SDS011;35706;52.100;5.056;2023-02-28T00:36:37;2.47;;;0.30;;
49812;SDS011;35706;52.100;5.056;2023-02-28T00:37:38;1.58;;;0.30;;
49812;SDS011;35706;52.100;5.056;2023-02-28T00:38:38;1.70;;;0.30;;
49812;SDS011;35706;52.100;5.056;2023-02-28T00:39:39;5.47;;;0.40;;
49812;SDS011;35706;52.100;5.056;2023-02-28T00:40:40;2.50;;;0.60;;
49812;SDS011;35706;52.100;5.056;2023-02-28T00:41:41;3.03;;;0.40;;
49812;SDS011;35706;52.100;5.056;2023-02-28T00:42:41;1.80;;;0.40;;
49812;SDS011;35706;52.100;5.056;2023-02-28T00:43:42;1.50;;;0.40;;
49812;SDS011;35706;52.100;5.056;2023-02-28T00:44:42;2.55;;;0.40;;
49812;SDS011;35706;52.100;5.056;2023-02-28T00:45:43;2.58;;;0.30;;
49812;SDS011;35706;52.100;5.056;2023-02-28T00:46:43;0.70;;;0.30;;
49812;SDS011;35706;52.100;5.056;2023-02-28T00:47:43;1.23;;;0.30;;
49812;SDS011;35706;52.100;5.056;2023-02-28T00:48:43;2.53;;;0.30;;
49812;SDS011;35706;52.100;5.056;2023-02-28T00:49:44;2.05;;;0.30;;
49812;SDS011;35706;52.100;5.056;2023-02-28T00:50:44;1.27;;;0.40;;
49812;SDS011;35706;52.100;5.056;2023-02-28T00:51:49;2.22;;;0.40;;
49812;SDS011;35706;52.100;5.056;2023-02-28T00:52:49;1.58;;;0.30;;
49812;SDS011;35706;52.100;5.056;2023-02-28T00:53:50;2.17;;;0.40;;
49812;SDS011;35706;52.100;5.056;2023-02-28T00:54:50;2.25;;;0.30;;
49812;SDS011;35706;52.100;5.056;2023-02-28T00:55:50;2.72;;;0.25;;
49812;SDS011;35706;52.100;5.056;2023-02-28T00:56:51;2.53;;;0.35;;
49812;SDS011;35706;52.100;5.056;2023-02-28T00:57:51;1.85;;;0.30;;
49812;SDS011;35706;52.100;5.056;2023-02-28T00:58:52;3.05;;;0.30;;
49812;SDS011;35706;52.100;5.056;2023-02-28T00:59:52;1.10;;;0.30;;
49812;SDS011;35706;52.100;5.056;2023-02-28T01:00:54;2.25;;;0.30;;
49812;SDS011;35706;52.100;5.056;2023-02-28T01:01:54;3.72;;;0.30;;
49812;SDS011;35706;52.100;5.056;2023-02-28T01:02:54;1.67;;;0.30;;
49812;SDS011;35706;52.100;5.056;2023-02-28T01:03:55;2.30;;;0.30;;
49812;SDS011;35706;52.100;5.056;2023-02-28T01:04:55;2.08;;;0.38;;
49812;SDS011;35706;52.100;5.056;2023-02-28T01:05:56;2.58;;;0.30;;
49812;SDS011;35706;52.100;5.056;2023-02-28T01:06:57;1.17;;;0.30;;
49812;SDS011;35706;52.100;5.056;2023-02-28T01:07:57;4.10;;;0.30;;
49812;SDS011;35706;52.100;5.056;2023-02-28T01:08:58;2.13;;;0.40;;
49812;SDS011;35706;52.100;5.056;2023-02-28T01:09:59;1.33;;;0.40;;
49812;SDS011;35706;52.100;5.056;2023-02-28T01:11:06;2.75;;;0.30;;
49812;SDS011;35706;52.100;5.056;2023-02-28T01:12:08;2.40;;;0.30;;
49812;SDS011;35706;52.100;5.056;2023-02-28T01:13:08;2.63;;;0.40;;
49812;SDS011;35706;52.100;5.056;2023-02-28T01:14:11;5.47;;;0.40;;
49812;SDS011;35706;52.100;5.056;2023-02-28T01:15:13;2.17;;;0.40;;
49812;SDS011;35706;52.100;5.056;2023-02-28T01:16:14;1.27;;;0.40;;
49812;SDS011;35706;52.100;5.056;2023-02-28T01:17:14;2.05;;;0.30;;
49812;SDS011;35706;52.100;5.056;2023-02-28T01:18:14;1.42;;;0.30;;
49812;SDS011;35706;52.100;5.056;2023-02-28T01:19:15;2.75;;;0.35;;
49812;SDS011;35706;52.100;5.056;2023-02-28T01:20:15;1.48;;;0.30;;
49812;SDS011;35706;52.100;5.056;2023-02-28T01:21:16;2.05;;;0.40;;
49812;SDS011;35706;52.100;5.056;2023-02-28T01:22:18;1.98;;;0.40;;
49812;SDS011;35706;52.100;5.056;2023-02-28T01:23:19;3.20;;;0.40;;
49812;SDS011;35706;52.100;5.056;2023-02-28T01:24:21;1.45;;;0.32;;
49812;SDS011;35706;52.100;5.056;2023-02-28T01:25:21;4.10;;;0.40;;
49812;SDS011;35706;52.100;5.056;2023-02-28T01:26:22;2.50;;;0.30;;
49812;SDS011;35706;52.100;5.056;2023-02-28T01:27:23;1.17;;;0.30;;
49812;SDS011;35706;52.100;5.056;2023-02-28T01:28:23;1.30;;;0.30;;
49812;SDS011;35706;52.100;5.056;2023-02-28T01:29:24;0.77;;;0.30;;
49812;SDS011;35706;52.100;5.056;2023-02-28T01:30:24;1.02;;;0.30;;
49812;SDS011;35706;52.100;5.056;2023-02-28T01:31:24;3.15;;;0.30;;
49812;SDS011;35706;52.100;5.056;2023-02-28T01:32:25;2.72;;;0.40;;
49812;SDS011;35706;52.100;5.056;2023-02-28T01:33:26;1.77;;;0.40;;
49812;SDS011;35706;52.100;5.056;2023-02-28T01:34:26;2.05;;;0.50;;
49812;SDS011;35706;52.100;5.056;2023-02-28T01:35:26;2.75;;;0.40;;
49812;SDS011;35706;52.100;5.056;2023-02-28T01:36:26;3.78;;;0.40;;
49812;SDS011;35706;52.100;5.056;2023-02-28T01:37:27;1.73;;;0.35;;
49812;SDS011;35706;52.100;5.056;2023-02-28T01:38:27;2.78;;;0.40;;
49812;SDS011;35706;52.100;5.056;2023-02-28T01:39:27;1.65;;;0.40;;
49812;SDS011;35706;52.100;5.056;2023-02-28T01:40:28;2.15;;;0.40;;
49812;SDS011;35706;52.100;5.056;2023-02-28T01:41:29;3.35;;;0.40;;
49812;SDS011;35706;52.100;5.056;2023-02-28T01:42:32;1.92;;;0.30;;
49812;SDS011;35706;52.100;5.056;2023-02-28T01:45:04;0.77;;;0.30;;
49812;SDS011;35706;52.100;5.056;2023-02-28T01:46:16;1.48;;;0.40;;
49812;SDS011;35706;52.100;5.056;2023-02-28T01:47:17;2.13;;;0.40;;
49812;SDS011;35706;52.100;5.056;2023-02-28T01:48:17;2.25;;;0.40;;
49812;SDS011;35706;52.100;5.056;2023-02-28T01:49:20;2.63;;;0.30;;
49812;SDS011;35706;52.100;5.056;2023-02-28T01:50:23;1.00;;;0.40;;
49812;SDS011;35706;52.100;5.056;2023-02-28T01:52:45;1.60;;;0.40;;
49812;SDS011;35706;52.100;5.056;2023-02-28T01:53:49;2.15;;;0.30;;
49812;SDS011;35706;52.100;5.056;2023-02-28T01:54:54;1.52;;;0.50;;
49812;SDS011;35706;52.100;5.056;2023-02-28T01:55:56;1.63;;;0.40;;
49812;SDS011;35706;52.100;5.056;2023-02-28T01:57:04;2.10;;;0.40;;
49812;SDS011;35706;52.100;5.056;2023-02-28T01:58:08;3.75;;;0.40;;
49812;SDS011;35706;52.100;5.056;2023-02-28T01:59:09;1.17;;;0.30;;
49812;SDS011;35706;52.100;5.056;2023-02-28T02:00:16;2.60;;;0.40;;
49812;SDS011;35706;52.100;5.056;2023-02-28T02:01:18;2.58;;;0.40;;
49812;SDS011;35706;52.100;5.056;2023-02-28T02:02:23;2.42;;;0.40;;
49812;SDS011;35706;52.100;5.056;2023-02-28T02:03:25;1.33;;;0.40;;
49812;SDS011;35706;52.100;5.056;2023-02-28T02:04:26;1.67;;;0.40;;
49812;SDS011;35706;52.100;5.056;2023-02-28T02:05:32;1.85;;;0.40;;
49812;SDS011;35706;52.100;5.056;2023-02-28T02:06:36;1.15;;;0.30;;
49812;SDS011;35706;52.100;5.056;2023-02-28T02:07:39;2.78;;;0.40;;
49812;SDS011;35706;52.100;5.056;2023-02-28T02:08:42;2.70;;;0.38;;
49812;SDS011;35706;52.100;5.056;2023-02-28T02:09:42;1.38;;;0.32;;
49812;SDS011;35706;52.100;5.056;2023-02-28T02:10:44;2.63;;;0.40;;
49812;SDS011;35706;52.100;5.056;2023-02-28T02:11:47;0.90;;;0.30;;
49812;SDS011;35706;52.100;5.056;2023-02-28T02:15:29;4.35;;;0.40;;
49812;SDS011;35706;52.100;5.056;2023-02-28T02:17:42;2.22;;;0.30;;
49812;SDS011;35706;52.100;5.056;2023-02-28T02:20:24;1.58;;;0.47;;
49812;SDS011;35706;52.100;5.056;2023-02-28T02:24:59;2.08;;;0.40;;
49812;SDS011;35706;52.100;5.056;2023-02-28T02:28:05;3.83;;;0.30;;
49812;SDS011;35706;52.100;5.056;2023-02-28T02:36:06;0.60;;;0.30;;
49812;SDS011;35706;52.100;5.056;2023-02-28T02:39:49;2.58;;;0.43;;
49812;SDS011;35706;52.100;5.056;2023-02-28T02:42:16;1.05;;;0.30;;
49812;SDS011;35706;52.100;5.056;2023-02-28T02:43:25;2.67;;;0.40;;
49812;SDS011;35706;52.100;5.056;2023-02-28T02:46:10;4.38;;;0.40;;
49812;SDS011;35706;52.100;5.056;2023-02-28T02:47:18;1.08;;;0.40;;
49812;SDS011;35706;52.100;5.056;2023-02-28T02:48:27;2.15;;;0.55;;
49812;SDS011;35706;52.100;5.056;2023-02-28T02:49:31;1.08;;;0.40;;
49812;SDS011;35706;52.100;5.056;2023-02-28T02:50:34;2.58;;;0.40;;
49812;SDS011;35706;52.100;5.056;2023-02-28T02:51:38;2.05;;;0.32;;
49812;SDS011;35706;52.100;5.056;2023-02-28T02:52:42;5.07;;;0.40;;
49812;SDS011;35706;52.100;5.056;2023-02-28T02:53:59;3.53;;;0.50;;
49812;SDS011;35706;52.100;5.056;2023-02-28T02:55:04;6.25;;;0.50;;
49812;SDS011;35706;52.100;5.056;2023-02-28T02:56:07;4.25;;;0.50;;
49812;SDS011;35706;52.100;5.056;2023-02-28T02:57:10;2.80;;;0.47;;
49812;SDS011;35706;52.100;5.056;2023-02-28T02:58:17;4.63;;;0.40;;
49812;SDS011;35706;52.100;5.056;2023-02-28T02:59:21;1.85;;;0.40;;
49812;SDS011;35706;52.100;5.056;2023-02-28T03:00:25;2.90;;;0.45;;
49812;SDS011;35706;52.100;5.056;2023-02-28T03:01:30;1.40;;;0.40;;
49812;SDS011;35706;52.100;5.056;2023-02-28T03:02:32;1.63;;;0.40;;
49812;SDS011;35706;52.100;5.056;2023-02-28T03:03:34;1.95;;;0.30;;
49812;SDS011;35706;52.100;5.056;2023-02-28T03:04:42;2.97;;;0.40;;
49812;SDS011;35706;52.100;5.056;2023-02-28T03:05:49;2.25;;;0.40;;
49812;SDS011;35706;52.100;5.056;2023-02-28T03:06:50;1.67;;;0.40;;
49812;SDS011;35706;52.100;5.056;2023-02-28T03:07:54;1.73;;;0.40;;
49812;SDS011;35706;52.100;5.056;2023-02-28T03:08:55;2.63;;;0.40;;
49812;SDS011;35706;52.100;5.056;2023-02-28T03:09:56;3.83;;;0.40;;
49812;SDS011;35706;52.100;5.056;2023-02-28T03:10:58;1.55;;;0.50;;
49812;SDS011;35706;52.100;5.056;2023-02-28T03:12:01;1.58;;;0.50;;
49812;SDS011;35706;52.100;5.056;2023-02-28T03:13:25;1.20;;;0.40;;
49812;SDS011;35706;52.100;5.056;2023-02-28T03:22:33;3.80;;;0.40;;
49812;SDS011;35706;52.100;5.056;2023-02-28T03:23:42;2.47;;;0.40;;
49812;SDS011;35706;52.100;5.056;2023-02-28T03:26:19;3.03;;;0.50;;
49812;SDS011;35706;52.100;5.056;2023-02-28T03:30:10;1.88;;;0.40;;
49812;SDS011;35706;52.100;5.056;2023-02-28T03:31:19;2.58;;;0.40;;
49812;SDS011;35706;52.100;5.056;2023-02-28T03:32:49;1.38;;;0.50;;
49812;SDS011;35706;52.100;5.056;2023-02-28T03:33:58;6.13;;;0.60;;
49812;SDS011;35706;52.100;5.056;2023-02-28T03:35:22;1.48;;;0.40;;
49812;SDS011;35706;52.100;5.056;2023-02-28T03:36:26;2.53;;;0.43;;
49812;SDS011;35706;52.100;5.056;2023-02-28T03:37:29;3.17;;;0.40;;
49812;SDS011;35706;52.100;5.056;2023-02-28T03:38:37;2.78;;;0.50;;
49812;SDS011;35706;52.100;5.056;2023-02-28T03:39:43;3.47;;;0.60;;
49812;SDS011;35706;52.100;5.056;2023-02-28T03:40:48;3.47;;;0.47;;
49812;SDS011;35706;52.100;5.056;2023-02-28T03:41:53;4.20;;;0.50;;
49812;SDS011;35706;52.100;5.056;2023-02-28T03:43:02;2.78;;;0.55;;
49812;SDS011;35706;52.100;5.056;2023-02-28T03:44:13;2.88;;;0.50;;
49812;SDS011;35706;52.100;5.056;2023-02-28T03:45:21;1.20;;;0.50;;
49812;SDS011;35706;52.100;5.056;2023-02-28T03:46:27;1.15;;;0.40;;
49812;SDS011;35706;52.100;5.056;2023-02-28T03:47:32;3.25;;;0.50;;
49812;SDS011;35706;52.100;5.056;2023-02-28T03:48:40;2.33;;;0.50;;
49812;SDS011;35706;52.100;5.056;2023-02-28T03:51:19;3.53;;;0.50;;
49812;SDS011;35706;52.100;5.056;2023-02-28T03:52:24;2.05;;;0.50;;
49812;SDS011;35706;52.100;5.056;2023-02-28T03:53:30;3.75;;;0.55;;
49812;SDS011;35706;52.100;5.056;2023-02-28T03:54:36;2.78;;;0.50;;
49812;SDS011;35706;52.100;5.056;2023-02-28T03:57:15;3.78;;;0.50;;
49812;SDS011;35706;52.100;5.056;2023-02-28T03:58:28;4.22;;;0.50;;
49812;SDS011;35706;52.100;5.056;2023-02-28T03:59:44;3.60;;;0.60;;
49812;SDS011;35706;52.100;5.056;2023-02-28T04:00:49;2.28;;;0.50;;
49812;SDS011;35706;52.100;5.056;2023-02-28T04:01:56;1.40;;;0.50;;
49812;SDS011;35706;52.100;5.056;2023-02-28T04:02:58;1.85;;;0.57;;
49812;SDS011;35706;52.100;5.056;2023-02-28T04:03:58;2.72;;;0.50;;
49812;SDS011;35706;52.100;5.056;2023-02-28T04:04:59;2.40;;;0.57;;
49812;SDS011;35706;52.100;5.056;2023-02-28T04:06:00;2.10;;;0.60;;
49812;SDS011;35706;52.100;5.056;2023-02-28T04:07:07;2.33;;;0.50;;
49812;SDS011;35706;52.100;5.056;2023-02-28T04:08:08;3.10;;;0.50;;
49812;SDS011;35706;52.100;5.056;2023-02-28T04:09:09;2.33;;;0.50;;
49812;SDS011;35706;52.100;5.056;2023-02-28T04:10:11;3.25;;;0.57;;
49812;SDS011;35706;52.100;5.056;2023-02-28T04:11:16;2.13;;;0.50;;
49812;SDS011;35706;52.100;5.056;2023-02-28T04:12:18;2.65;;;0.60;;
49812;SDS011;35706;52.100;5.056;2023-02-28T04:13:19;2.33;;;0.70;;
49812;SDS011;35706;52.100;5.056;2023-02-28T04:14:19;2.90;;;0.60;;
49812;SDS011;35706;52.100;5.056;2023-02-28T04:15:19;2.00;;;0.60;;
49812;SDS011;35706;52.100;5.056;2023-02-28T04:16:22;3.67;;;0.60;;
49812;SDS011;35706;52.100;5.056;2023-02-28T04:17:22;3.83;;;0.60;;
49812;SDS011;35706;52.100;5.056;2023-02-28T04:18:23;4.00;;;0.60;;
49812;SDS011;35706;52.100;5.056;2023-02-28T04:19:23;4.00;;;0.70;;
49812;SDS011;35706;52.100;5.056;2023-02-28T04:20:23;1.63;;;0.60;;
49812;SDS011;35706;52.100;5.056;2023-02-28T04:21:24;1.50;;;0.60;;
49812;SDS011;35706;52.100;5.056;2023-02-28T04:22:24;5.55;;;0.73;;
49812;SDS011;35706;52.100;5.056;2023-02-28T04:23:27;4.72;;;0.80;;
49812;SDS011;35706;52.100;5.056;2023-02-28T04:24:27;4.32;;;0.60;;
49812;SDS011;35706;52.100;5.056;2023-02-28T04:25:29;1.48;;;0.60;;
49812;SDS011;35706;52.100;5.056;2023-02-28T04:26:30;1.77;;;0.60;;
49812;SDS011;35706;52.100;5.056;2023-02-28T04:27:30;2.28;;;0.60;;
49812;SDS011;35706;52.100;5.056;2023-02-28T04:28:31;1.88;;;0.60;;
49812;SDS011;35706;52.100;5.056;2023-02-28T04:29:32;2.10;;;0.65;;
49812;SDS011;35706;52.100;5.056;2023-02-28T04:30:32;2.08;;;0.60;;
49812;SDS011;35706;52.100;5.056;2023-02-28T04:31:33;3.88;;;0.65;;
49812;SDS011;35706;52.100;5.056;2023-02-28T04:32:33;2.75;;;0.60;;
49812;SDS011;35706;52.100;5.056;2023-02-28T04:33:34;1.85;;;0.70;;
49812;SDS011;35706;52.100;5.056;2023-02-28T04:34:34;2.50;;;0.70;;
49812;SDS011;35706;52.100;5.056;2023-02-28T04:35:34;2.33;;;0.70;;
49812;SDS011;35706;52.100;5.056;2023-02-28T04:36:35;3.40;;;0.65;;
49812;SDS011;35706;52.100;5.056;2023-02-28T04:37:35;2.58;;;0.82;;
49812;SDS011;35706;52.100;5.056;2023-02-28T04:38:37;8.20;;;0.70;;
49812;SDS011;35706;52.100;5.056;2023-02-28T04:39:39;2.28;;;0.70;;
49812;SDS011;35706;52.100;5.056;2023-02-28T04:40:40;3.15;;;0.70;;
49812;SDS011;35706;52.100;5.056;2023-02-28T04:41:40;3.05;;;0.70;;
49812;SDS011;35706;52.100;5.056;2023-02-28T04:42:41;3.05;;;0.57;;
49812;SDS011;35706;52.100;5.056;2023-02-28T04:43:41;7.13;;;0.68;;
49812;SDS011;35706;52.100;5.056;2023-02-28T04:44:41;5.10;;;0.70;;
49812;SDS011;35706;52.100;5.056;2023-02-28T04:45:42;3.65;;;0.80;;
49812;SDS011;35706;52.100;5.056;2023-02-28T04:46:43;4.03;;;0.70;;
49812;SDS011;35706;52.100;5.056;2023-02-28T04:47:44;2.50;;;0.80;;
49812;SDS011;35706;52.100;5.056;2023-02-28T04:48:44;3.13;;;0.70;;
49812;SDS011;35706;52.100;5.056;2023-02-28T04:49:44;2.22;;;0.60;;
49812;SDS011;35706;52.100;5.056;2023-02-28T04:50:45;2.72;;;0.70;;
49812;SDS011;35706;52.100;5.056;2023-02-28T04:51:45;3.08;;;0.60;;
49812;SDS011;35706;52.100;5.056;2023-02-28T04:52:45;3.03;;;0.60;;
49812;SDS011;35706;52.100;5.056;2023-02-28T04:53:46;3.08;;;0.65;;
49812;SDS011;35706;52.100;5.056;2023-02-28T04:54:48;1.98;;;0.60;;
49812;SDS011;35706;52.100;5.056;2023-02-28T04:55:49;5.10;;;0.70;;
49812;SDS011;35706;52.100;5.056;2023-02-28T04:56:49;2.92;;;0.70;;
49812;SDS011;35706;52.100;5.056;2023-02-28T04:57:49;2.88;;;0.65;;
49812;SDS011;35706;52.100;5.056;2023-02-28T04:58:50;2.05;;;0.70;;
49812;SDS011;35706;52.100;5.056;2023-02-28T04:59:52;1.90;;;0.70;;
49812;SDS011;35706;52.100;5.056;2023-02-28T05:00:53;2.83;;;0.70;;
49812;SDS011;35706;52.100;5.056;2023-02-28T05:01:54;4.70;;;0.80;;
49812;SDS011;35706;52.100;5.056;2023-02-28T05:02:54;2.67;;;0.80;;
49812;SDS011;35706;52.100;5.056;2023-02-28T05:03:55;6.18;;;0.77;;
49812;SDS011;35706;52.100;5.056;2023-02-28T05:04:57;5.53;;;0.85;;
49812;SDS011;35706;52.100;5.056;2023-02-28T05:05:57;3.20;;;0.75;;
49812;SDS011;35706;52.100;5.056;2023-02-28T05:06:57;2.80;;;0.70;;
49812;SDS011;35706;52.100;5.056;2023-02-28T05:07:58;1.58;;;0.60;;
49812;SDS011;35706;52.100;5.056;2023-02-28T05:08:58;2.95;;;0.60;;
49812;SDS011;35706;52.100;5.056;2023-02-28T05:09:59;3.33;;;0.65;;
49812;SDS011;35706;52.100;5.056;2023-02-28T05:10:59;2.58;;;0.60;;
49812;SDS011;35706;52.100;5.056;2023-02-28T05:12:00;3.85;;;0.70;;
49812;SDS011;35706;52.100;5.056;2023-02-28T05:13:01;4.15;;;0.60;;
49812;SDS011;35706;52.100;5.056;2023-02-28T05:14:02;2.42;;;0.50;;
49812;SDS011;35706;52.100;5.056;2023-02-28T05:15:04;3.65;;;0.57;;
49812;SDS011;35706;52.100;5.056;2023-02-28T05:16:05;1.30;;;0.60;;
49812;SDS011;35706;52.100;5.056;2023-02-28T05:17:05;3.90;;;0.52;;
49812;SDS011;35706;52.100;5.056;2023-02-28T05:18:05;2.10;;;0.60;;
49812;SDS011;35706;52.100;5.056;2023-02-28T05:19:07;2.40;;;0.50;;
49812;SDS011;35706;52.100;5.056;2023-02-28T05:20:08;2.05;;;0.70;;
49812;SDS011;35706;52.100;5.056;2023-02-28T05:22:24;2.40;;;0.50;;
49812;SDS011;35706;52.100;5.056;2023-02-28T05:23:24;2.55;;;0.43;;
49812;SDS011;35706;52.100;5.056;2023-02-28T05:24:25;3.95;;;0.50;;
49812;SDS011;35706;52.100;5.056;2023-02-28T05:25:25;1.73;;;0.40;;
49812;SDS011;35706;52.100;5.056;2023-02-28T05:26:26;1.55;;;0.40;;
49812;SDS011;35706;52.100;5.056;2023-02-28T05:27:28;1.65;;;0.40;;
49812;SDS011;35706;52.100;5.056;2023-02-28T05:28:28;2.63;;;0.40;;
49812;SDS011;35706;52.100;5.056;2023-02-28T05:29:28;1.30;;;0.40;;
49812;SDS011;35706;52.100;5.056;2023-02-28T05:30:28;1.50;;;0.40;;
49812;SDS011;35706;52.100;5.056;2023-02-28T05:31:29;1.33;;;0.40;;
49812;SDS011;35706;52.100;5.056;2023-02-28T05:32:30;3.47;;;1.08;;
49812;SDS011;35706;52.100;5.056;2023-02-28T05:33:30;2.22;;;0.43;;
49812;SDS011;35706;52.100;5.056;2023-02-28T05:34:30;2.83;;;0.57;;
49812;SDS011;35706;52.100;5.056;2023-02-28T05:35:31;2.85;;;0.50;;
49812;SDS011;35706;52.100;5.056;2023-02-28T05:36:31;3.83;;;0.50;;
49812;SDS011;35706;52.100;5.056;2023-02-28T05:37:32;3.05;;;0.40;;
49812;SDS011;35706;52.100;5.056;2023-02-28T05:38:32;1.50;;;0.50;;
49812;SDS011;35706;52.100;5.056;2023-02-28T05:39:33;1.17;;;0.50;;
49812;SDS011;35706;52.100;5.056;2023-02-28T05:40:33;0.90;;;0.40;;
49812;SDS011;35706;52.100;5.056;2023-02-28T05:41:33;3.17;;;0.40;;
49812;SDS011;35706;52.100;5.056;2023-02-28T05:42:34;3.45;;;0.52;;
49812;SDS011;35706;52.100;5.056;2023-02-28T05:43:34;5.22;;;0.45;;
49812;SDS011;35706;52.100;5.056;2023-02-28T05:44:35;1.50;;;0.40;;
49812;SDS011;35706;52.100;5.056;2023-02-28T05:45:36;3.05;;;0.50;;
49812;SDS011;35706;52.100;5.056;2023-02-28T05:46:36;3.80;;;0.40;;
49812;SDS011;35706;52.100;5.056;2023-02-28T05:47:36;1.05;;;0.40;;
49812;SDS011;35706;52.100;5.056;2023-02-28T05:48:37;2.05;;;0.40;;
49812;SDS011;35706;52.100;5.056;2023-02-28T05:49:39;2.40;;;0.40;;
49812;SDS011;35706;52.100;5.056;2023-02-28T05:50:39;2.42;;;0.40;;
49812;SDS011;35706;52.100;5.056;2023-02-28T05:51:39;2.55;;;0.40;;
49812;SDS011;35706;52.100;5.056;2023-02-28T05:52:40;2.97;;;0.40;;
49812;SDS011;35706;52.100;5.056;2023-02-28T05:53:40;3.00;;;0.47;;
49812;SDS011;35706;52.100;5.056;2023-02-28T05:54:40;1.98;;;0.50;;
49812;SDS011;35706;52.100;5.056;2023-02-28T05:55:41;0.90;;;0.40;;
49812;SDS011;35706;52.100;5.056;2023-02-28T05:56:41;2.45;;;0.50;;
49812;SDS011;35706;52.100;5.056;2023-02-28T05:57:44;1.85;;;0.50;;
49812;SDS011;35706;52.100;5.056;2023-02-28T05:58:44;1.27;;;0.50;;
49812;SDS011;35706;52.100;5.056;2023-02-28T05:59:44;3.67;;;0.50;;
49812;SDS011;35706;52.100;5.056;2023-02-28T06:00:45;1.15;;;0.50;;
49812;SDS011;35706;52.100;5.056;2023-02-28T06:01:45;3.00;;;0.65;;
49812;SDS011;35706;52.100;5.056;2023-02-28T06:02:48;1.42;;;0.50;;
49812;SDS011;35706;52.100;5.056;2023-02-28T06:03:48;3.10;;;0.50;;
49812;SDS011;35706;52.100;5.056;2023-02-28T06:04:49;1.40;;;0.43;;
49812;SDS011;35706;52.100;5.056;2023-02-28T06:05:49;1.48;;;0.40;;
49812;SDS011;35706;52.100;5.056;2023-02-28T06:06:50;1.35;;;0.50;;
49812;SDS011;35706;52.100;5.056;2023-02-28T06:07:50;0.98;;;0.50;;
49812;SDS011;35706;52.100;5.056;2023-02-28T06:08:51;2.72;;;0.50;;
49812;SDS011;35706;52.100;5.056;2023-02-28T06:09:51;1.48;;;0.40;;
49812;SDS011;35706;52.100;5.056;2023-02-28T06:10:51;1.00;;;0.50;;
49812;SDS011;35706;52.100;5.056;2023-02-28T06:11:51;3.25;;;0.50;;
49812;SDS011;35706;52.100;5.056;2023-02-28T06:12:52;1.20;;;0.45;;
49812;SDS011;35706;52.100;5.056;2023-02-28T06:13:56;1.08;;;0.50;;
49812;SDS011;35706;52.100;5.056;2023-02-28T06:14:57;2.45;;;0.50;;
49812;SDS011;35706;52.100;5.056;2023-02-28T06:16:00;1.02;;;0.60;;
49812;SDS011;35706;52.100;5.056;2023-02-28T06:17:00;1.98;;;0.60;;
49812;SDS011;35706;52.100;5.056;2023-02-28T06:18:01;2.22;;;0.60;;
49812;SDS011;35706;52.100;5.056;2023-02-28T06:19:02;1.63;;;0.50;;
49812;SDS011;35706;52.100;5.056;2023-02-28T06:20:04;2.22;;;0.70;;
49812;SDS011;35706;52.100;5.056;2023-02-28T06:21:05;1.92;;;0.50;;
49812;SDS011;35706;52.100;5.056;2023-02-28T06:22:05;3.15;;;0.50;;
49812;SDS011;35706;52.100;5.056;2023-02-28T06:23:05;2.45;;;0.50;;
49812;SDS011;35706;52.100;5.056;2023-02-28T06:24:06;2.35;;;0.60;;
49812;SDS011;35706;52.100;5.056;2023-02-28T06:25:07;2.25;;;0.50;;
49812;SDS011;35706;52.100;5.056;2023-02-28T06:26:07;2.33;;;0.60;;
49812;SDS011;35706;52.100;5.056;2023-02-28T06:27:08;1.20;;;0.50;;
49812;SDS011;35706;52.100;5.056;2023-02-28T06:28:08;1.60;;;0.50;;
49812;SDS011;35706;52.100;5.056;2023-02-28T06:29:08;3.22;;;0.70;;
49812;SDS011;35706;52.100;5.056;2023-02-28T06:30:09;6.03;;;2.42;;
49812;SDS011;35706;52.100;5.056;2023-02-28T06:31:12;3.35;;;1.40;;
49812;SDS011;35706;52.100;5.056;2023-02-28T06:32:14;3.33;;;0.68;;
49812;SDS011;35706;52.100;5.056;2023-02-28T06:33:14;1.95;;;0.55;;
49812;SDS011;35706;52.100;5.056;2023-02-28T06:34:14;2.15;;;0.70;;
49812;SDS011;35706;52.100;5.056;2023-02-28T06:35:15;1.67;;;0.60;;
49812;SDS011;35706;52.100;5.056;2023-02-28T06:36:16;3.33;;;0.70;;
49812;SDS011;35706;52.100;5.056;2023-02-28T06:37:17;1.52;;;0.60;;
49812;SDS011;35706;52.100;5.056;2023-02-28T06:38:17;2.67;;;0.52;;
49812;SDS011;35706;52.100;5.056;2023-02-28T06:39:18;2.85;;;0.60;;
49812;SDS011;35706;52.100;5.056;2023-02-28T06:40:19;5.38;;;0.77;;
49812;SDS011;35706;52.100;5.056;2023-02-28T06:41:20;1.40;;;0.60;;
49812;SDS011;35706;52.100;5.056;2023-02-28T06:42:22;1.20;;;0.60;;
49812;SDS011;35706;52.100;5.056;2023-02-28T06:43:29;2.47;;;0.60;;
49812;SDS011;35706;52.100;5.056;2023-02-28T06:44:31;3.38;;;0.60;;
49812;SDS011;35706;52.100;5.056;2023-02-28T06:45:35;2.20;;;0.68;;
49812;SDS011;35706;52.100;5.056;2023-02-28T06:46:35;3.38;;;0.60;;
49812;SDS011;35706;52.100;5.056;2023-02-28T06:47:36;1.42;;;0.50;;
49812;SDS011;35706;52.100;5.056;2023-02-28T06:48:38;1.30;;;0.55;;
49812;SDS011;35706;52.100;5.056;2023-02-28T06:49:39;3.40;;;0.70;;
49812;SDS011;35706;52.100;5.056;2023-02-28T06:50:39;3.50;;;0.60;;
49812;SDS011;35706;52.100;5.056;2023-02-28T06:51:40;2.60;;;0.60;;
49812;SDS011;35706;52.100;5.056;2023-02-28T06:52:44;3.22;;;0.52;;
49812;SDS011;35706;52.100;5.056;2023-02-28T06:53:45;1.83;;;0.60;;
49812;SDS011;35706;52.100;5.056;2023-02-28T06:54:45;3.40;;;0.60;;
49812;SDS011;35706;52.100;5.056;2023-02-28T06:55:45;2.83;;;0.63;;
49812;SDS011;35706;52.100;5.056;2023-02-28T06:56:46;3.15;;;0.60;;